createdAt,value
2018-11-22T00:01:32.662Z,30.70
2018-11-22T00:04:01.382Z,30.43
2018-11-22T00:06:30.145Z,29.23
2018-11-22T00:08:58.470Z,28.73
2018-11-22T00:11:26.784Z,30.13
2018-11-22T00:13:55.248Z,28.13
2018-11-22T00:16:24.384Z,32.03
2018-11-22T00:18:52.959Z,28.80
2018-11-22T00:21:21.758Z,29.80
2018-11-22T00:23:50.301Z,26.83
2018-11-22T00:26:19.125Z,29.03
2018-11-22T00:28:47.405Z,32.13
2018-11-22T00:31:15.954Z,29.73
2018-11-22T00:33:44.578Z,29.20
2018-11-22T00:36:12.913Z,31.50
2018-11-22T00:38:41.751Z,28.93
2018-11-22T00:41:10.068Z,30.53
2018-11-22T00:43:38.877Z,29.27
2018-11-22T00:46:07.460Z,29.87
2018-11-22T00:48:35.758Z,33.23
2018-11-22T00:51:04.587Z,30.60
2018-11-22T00:53:33.142Z,30.70
2018-11-22T00:56:01.700Z,31.93
2018-11-22T00:58:30.225Z,32.70
2018-11-22T01:00:58.763Z,29.37
2018-11-22T01:03:27.056Z,28.77
2018-11-22T01:05:55.886Z,29.50
2018-11-22T01:08:24.171Z,30.40
2018-11-22T01:10:53.027Z,28.80
2018-11-22T01:13:21.585Z,26.67
2018-11-22T01:15:50.423Z,28.67
2018-11-22T01:18:18.706Z,25.27
2018-11-22T01:20:47.252Z,21.17
2018-11-22T01:23:16.042Z,21.20
2018-11-22T01:25:44.580Z,23.10
2018-11-22T01:28:13.128Z,22.10
2018-11-22T01:30:41.916Z,21.20
2018-11-22T01:33:10.977Z,21.93
2018-11-22T01:35:39.270Z,22.53
2018-11-22T01:38:07.870Z,21.77
2018-11-22T01:40:36.679Z,20.67
2018-11-22T01:43:05.237Z,22.27
2018-11-22T01:45:33.778Z,20.13
2018-11-22T01:48:02.627Z,23.27
2018-11-22T01:50:31.225Z,22.20
2018-11-22T01:52:59.760Z,20.80
2018-11-22T01:55:28.048Z,20.27
2018-11-22T01:57:56.600Z,19.63
2018-11-22T02:00:26.097Z,20.93
2018-11-22T02:02:54.684Z,20.70
2018-11-22T02:05:24.721Z,22.10
2018-11-22T02:07:53.048Z,22.33
2018-11-22T02:10:22.295Z,21.90
2018-11-22T02:12:50.846Z,21.23
2018-11-22T02:15:20.667Z,21.53
2018-11-22T02:17:49.473Z,21.80
2018-11-22T02:20:21.669Z,21.13
2018-11-22T02:22:50.516Z,21.37
2018-11-22T02:25:20.402Z,22.03
2018-11-22T02:27:49.227Z,20.17
2018-11-22T02:30:19.537Z,22.30
2018-11-22T02:32:49.399Z,21.50
2018-11-22T02:35:18.253Z,21.57
2018-11-22T02:37:47.027Z,23.00
2018-11-22T02:40:16.836Z,22.27
2018-11-22T02:42:46.459Z,22.23
2018-11-22T02:45:16.322Z,22.17
2018-11-22T02:47:45.268Z,22.60
2018-11-22T02:50:18.037Z,22.67
2018-11-22T02:52:46.491Z,22.23
2018-11-22T02:55:15.036Z,22.83
2018-11-22T02:57:44.005Z,21.57
2018-11-22T03:00:42.303Z,21.70
2018-11-22T03:03:11.793Z,21.93
2018-11-22T03:05:40.342Z,22.53
2018-11-22T03:08:08.650Z,22.33
2018-11-22T03:10:37.248Z,22.23
2018-11-22T03:13:06.674Z,23.27
2018-11-22T03:15:34.949Z,23.33
2018-11-22T03:18:03.761Z,23.87
2018-11-22T03:20:32.586Z,23.90
2018-11-22T03:23:01.127Z,23.90
2018-11-22T03:25:29.400Z,21.77
2018-11-22T03:27:57.938Z,21.60
2018-11-22T03:30:26.483Z,23.83
2018-11-22T03:32:54.763Z,23.00
2018-11-22T03:35:24.912Z,23.53
2018-11-22T03:37:53.753Z,24.60
2018-11-22T03:40:23.655Z,23.93
2018-11-22T03:42:52.205Z,22.37
2018-11-22T03:45:21.147Z,22.47
2018-11-22T03:47:50.017Z,24.03
2018-11-22T03:50:22.602Z,26.23
2018-11-22T03:52:52.709Z,23.70
2018-11-22T03:55:21.538Z,25.07
2018-11-22T03:57:50.374Z,24.17
2018-11-22T04:00:26.987Z,23.47
2018-11-22T04:02:55.843Z,23.03
2018-11-22T04:05:25.591Z,26.43
2018-11-22T04:07:54.376Z,23.93
2018-11-22T04:10:24.334Z,24.97
2018-11-22T04:12:53.126Z,23.73
2018-11-22T04:15:21.772Z,23.40
2018-11-22T04:17:50.426Z,25.27
2018-11-22T04:20:22.965Z,25.33
2018-11-22T04:22:52.149Z,25.33
2018-11-22T04:25:21.663Z,24.80
2018-11-22T04:27:50.242Z,25.43
2018-11-22T04:30:29.914Z,26.57
2018-11-22T04:32:58.445Z,27.60
2018-11-22T04:35:27.164Z,26.60
2018-11-22T04:37:56.331Z,26.37
2018-11-22T04:40:26.355Z,28.67
2018-11-22T04:42:55.008Z,34.83
2018-11-22T04:45:23.570Z,33.73
2018-11-22T04:47:53.759Z,40.13
2018-11-22T04:50:23.809Z,36.47
2018-11-22T04:52:52.164Z,37.97
2018-11-22T04:55:21.237Z,36.00
2018-11-22T04:57:50.045Z,35.80
2018-11-22T05:00:19.776Z,37.50
2018-11-22T05:02:48.136Z,36.90
2018-11-22T05:05:20.721Z,37.07
2018-11-22T05:07:49.273Z,36.43
2018-11-22T05:10:19.380Z,36.27
2018-11-22T05:12:48.624Z,35.07
2018-11-22T05:15:18.833Z,37.40
2018-11-22T05:17:47.380Z,35.83
2018-11-22T05:20:17.254Z,41.93
2018-11-22T05:22:46.580Z,45.27
2018-11-22T05:25:15.301Z,40.27
2018-11-22T05:27:43.868Z,41.63
2018-11-22T05:30:14.871Z,40.13
2018-11-22T05:32:43.408Z,38.93
2018-11-22T05:35:12.623Z,43.53
2018-11-22T05:37:41.155Z,44.00
2018-11-22T05:40:12.650Z,44.20
2018-11-22T05:42:41.556Z,48.73
2018-11-22T05:45:11.967Z,51.83
2018-11-22T05:47:40.682Z,47.57
2018-11-22T05:50:10.894Z,45.83
2018-11-22T05:52:39.707Z,46.60
2018-11-22T05:55:09.262Z,49.30
2018-11-22T05:57:37.785Z,53.37
2018-11-22T06:00:16.793Z,60.03
2018-11-22T06:02:45.097Z,51.83
2018-11-22T06:05:14.463Z,55.13
2018-11-22T06:07:43.187Z,58.47
2018-11-22T06:10:17.027Z,55.50
2018-11-22T06:12:45.522Z,54.07
2018-11-22T06:15:14.391Z,57.37
2018-11-22T06:17:43.138Z,52.07
2018-11-22T06:20:22.957Z,54.33
2018-11-22T06:22:51.809Z,52.80
2018-11-22T06:25:20.721Z,54.47
2018-11-22T06:27:49.218Z,51.23
2018-11-22T06:30:19.718Z,48.13
2018-11-22T06:32:49.378Z,47.43
2018-11-22T06:35:17.971Z,49.33
2018-11-22T06:37:46.489Z,52.73
2018-11-22T06:40:16.093Z,50.33
2018-11-22T06:42:45.146Z,48.00
2018-11-22T06:45:19.052Z,50.57
2018-11-22T06:47:47.286Z,47.10
2018-11-22T06:50:16.458Z,45.50
2018-11-22T06:52:44.985Z,38.50
2018-11-22T06:55:17.763Z,35.80
2018-11-22T06:57:46.030Z,39.00
2018-11-22T07:00:16.343Z,38.90
2018-11-22T07:02:44.859Z,37.97
2018-11-22T07:05:13.901Z,48.80
2018-11-22T07:07:42.247Z,40.90
2018-11-22T07:10:12.504Z,43.00
2018-11-22T07:12:41.821Z,46.03
2018-11-22T07:15:11.236Z,49.67
2018-11-22T07:17:39.742Z,53.67
2018-11-22T07:20:13.414Z,49.07
2018-11-22T07:22:41.669Z,50.10
2018-11-22T07:25:12.845Z,47.67
2018-11-22T07:27:41.547Z,45.13
2018-11-22T07:30:11.731Z,49.23
2018-11-22T07:32:40.283Z,41.83
2018-11-22T07:35:09.989Z,40.67
2018-11-22T07:37:38.782Z,41.73
2018-11-22T07:40:12.030Z,41.57
2018-11-22T07:42:40.663Z,35.40
2018-11-22T12:17:11.616Z,24.30
2018-11-22T12:19:39.902Z,24.83
2018-11-22T12:22:08.170Z,25.03
2018-11-22T12:24:36.453Z,24.77
2018-11-22T12:27:04.771Z,24.70
2018-11-22T12:29:33.078Z,23.17
2018-11-22T12:32:06.745Z,23.53
2018-11-22T12:34:40.382Z,25.27
2018-11-22T12:37:13.690Z,22.70
2018-11-22T12:39:41.969Z,23.43
2018-11-22T12:42:10.324Z,25.53
2018-11-22T12:44:39.536Z,23.00
2018-11-22T12:47:07.917Z,22.80
2018-11-22T12:49:36.177Z,24.33
2018-11-22T12:52:04.471Z,23.17
2018-11-22T12:54:32.743Z,23.30
2018-11-22T12:57:01.034Z,22.57
2018-11-22T12:59:29.307Z,22.87
2018-11-22T13:01:57.586Z,25.03
2018-11-22T13:04:25.846Z,27.43
2018-11-22T13:06:54.145Z,28.77
2018-11-22T13:09:22.891Z,29.43
2018-11-22T13:11:50.712Z,27.63
2018-11-22T13:14:19.005Z,26.47
2018-11-22T13:16:47.281Z,28.13
2018-11-22T13:19:15.797Z,27.53
2018-11-22T13:21:44.150Z,28.83
2018-11-22T13:24:12.410Z,29.87
2018-11-22T13:26:40.681Z,27.33
2018-11-22T13:29:08.998Z,27.47
2018-11-22T13:31:37.294Z,27.07
2018-11-22T13:34:05.787Z,27.90
2018-11-22T13:36:34.113Z,28.50
2018-11-22T13:39:02.390Z,26.73
2018-11-22T13:41:30.666Z,26.77
2018-11-22T13:43:58.922Z,25.77
2018-11-22T13:46:27.238Z,29.50
2018-11-22T13:48:55.493Z,27.47
2018-11-22T13:51:23.757Z,28.87
2018-11-22T13:53:52.043Z,26.10
2018-11-22T13:56:20.308Z,27.83
2018-11-22T13:58:48.592Z,26.07
2018-11-22T14:01:16.881Z,29.27
2018-11-22T14:03:45.136Z,29.90
2018-11-22T14:06:13.393Z,30.67
2018-11-22T14:08:41.704Z,27.87
2018-11-22T14:11:13.731Z,32.47
2018-11-22T14:13:38.282Z,29.70
2018-11-22T14:16:06.558Z,27.20
2018-11-22T14:18:34.827Z,28.73
2018-11-22T14:21:03.102Z,27.73
2018-11-22T14:23:31.366Z,27.83
2018-11-22T14:25:59.640Z,27.50
2018-11-22T14:28:27.902Z,27.07
2018-11-22T14:30:56.245Z,26.07
2018-11-22T14:33:24.575Z,27.77
2018-11-22T14:35:52.911Z,27.97
2018-11-22T14:38:21.355Z,28.10
2018-11-22T14:40:49.613Z,27.33
2018-11-22T14:43:17.869Z,27.13
2018-11-22T14:45:46.133Z,27.57
2018-11-22T14:48:14.400Z,28.13
2018-11-22T14:50:46.937Z,26.63
2018-11-22T14:53:18.086Z,27.13
2018-11-22T14:55:46.419Z,28.50
2018-11-22T14:58:14.705Z,25.43
2018-11-22T15:00:43.031Z,27.70
2018-11-22T15:03:11.302Z,31.83
2018-11-22T15:05:39.562Z,29.90
2018-11-22T15:08:08.004Z,30.00
2018-11-22T15:10:36.283Z,27.03
2018-11-22T15:13:04.839Z,29.20
2018-11-22T15:15:33.094Z,30.00
2018-11-22T15:18:01.372Z,28.17
2018-11-22T15:20:29.727Z,28.83
2018-11-22T15:22:57.990Z,26.70
2018-11-22T15:25:27.830Z,28.27
2018-11-22T15:27:58.455Z,30.27
2018-11-22T15:30:28.214Z,28.77
2018-11-22T15:32:56.984Z,33.10
2018-11-22T15:35:26.723Z,30.20
2018-11-22T15:37:55.220Z,31.23
2018-11-22T15:40:24.586Z,33.77
2018-11-22T15:42:54.205Z,31.30
2018-11-22T15:45:23.886Z,30.10
2018-11-22T15:47:52.262Z,29.03
2018-11-22T15:50:21.959Z,29.43
2018-11-22T15:52:50.273Z,27.87
2018-11-22T15:55:21.056Z,30.77
2018-11-22T15:57:48.747Z,28.77
2018-11-22T16:00:20.063Z,29.40
2018-11-22T16:02:48.856Z,29.53
2018-11-22T16:05:17.672Z,29.87
2018-11-22T16:07:45.955Z,29.77
2018-11-22T16:10:16.802Z,29.20
2018-11-22T16:12:45.882Z,35.77
2018-11-22T16:15:18.309Z,37.00
2018-11-22T16:17:46.596Z,34.77
2018-11-22T16:20:14.869Z,34.13
2018-11-22T16:22:43.313Z,34.03
2018-11-22T16:25:12.642Z,31.07
2018-11-22T16:27:40.967Z,32.57
2018-11-22T16:30:13.521Z,34.57
2018-11-22T16:32:41.954Z,30.60
2018-11-22T16:35:11.865Z,32.13
2018-11-22T16:37:40.303Z,34.00
2018-11-22T16:40:11.001Z,34.70
2018-11-22T16:42:40.190Z,33.63
2018-11-22T16:45:15.668Z,35.10
2018-11-22T16:47:43.997Z,35.10
2018-11-22T16:50:13.174Z,37.20
2018-11-22T16:52:41.838Z,34.13
2018-11-22T16:55:10.967Z,35.33
2018-11-22T16:57:39.521Z,38.27
2018-11-22T17:00:12.898Z,39.23
2018-11-22T17:02:41.231Z,40.60
2018-11-22T17:05:09.521Z,37.93
2018-11-22T17:07:37.837Z,39.03
2018-11-22T17:10:07.304Z,38.57
2018-11-22T17:12:35.569Z,41.17
2018-11-22T17:15:04.252Z,43.87
2018-11-22T17:17:32.525Z,47.00
2018-11-22T17:20:00.784Z,44.07
2018-11-22T17:22:29.054Z,45.33
2018-11-22T17:24:57.314Z,51.17
2018-11-22T17:27:25.577Z,44.70
2018-11-22T17:29:53.850Z,49.10
2018-11-22T17:32:22.132Z,49.20
2018-11-22T17:34:50.765Z,49.70
2018-11-22T17:37:18.672Z,51.47
2018-11-22T17:39:46.963Z,49.23
2018-11-22T17:42:15.221Z,49.17
2018-11-22T17:44:43.510Z,48.63
2018-11-22T17:47:11.930Z,50.10
2018-11-22T17:49:40.203Z,53.40
2018-11-22T17:52:08.471Z,52.27
2018-11-22T17:54:36.844Z,62.60
2018-11-22T17:57:05.796Z,58.50
2018-11-22T17:59:34.064Z,61.03
2018-11-22T18:02:02.345Z,55.13
2018-11-22T18:04:30.614Z,53.50
2018-11-22T18:06:58.894Z,53.63
2018-11-22T18:09:27.158Z,55.57
2018-11-22T18:11:55.450Z,53.27
2018-11-22T18:14:23.709Z,51.63
2018-11-22T18:16:51.990Z,50.97
2018-11-22T18:19:20.258Z,69.37
2018-11-22T18:21:48.534Z,75.80
2018-11-22T18:24:16.791Z,60.80
2018-11-22T18:26:45.067Z,60.90
2018-11-22T18:29:13.330Z,58.13
2018-11-22T18:31:41.615Z,64.50
2018-11-22T18:34:09.893Z,57.70
2018-11-22T18:36:38.189Z,43.93
2018-11-22T18:39:08.221Z,44.17
2018-11-22T18:41:36.486Z,46.23
2018-11-22T18:44:04.818Z,54.40
2018-11-22T18:46:33.074Z,45.73
2018-11-22T18:49:01.348Z,43.33
2018-11-22T18:51:29.597Z,44.87
2018-11-22T18:53:57.867Z,51.90
2018-11-22T18:56:26.133Z,52.13
2018-11-22T18:58:54.399Z,50.30
2018-11-22T19:01:22.695Z,51.17
2018-11-22T19:03:50.974Z,56.80
2018-11-22T19:06:19.238Z,76.77
2018-11-22T19:08:47.501Z,85.03
2018-11-22T19:11:15.771Z,79.83
2018-11-22T19:13:44.055Z,92.73
2018-11-22T19:16:12.350Z,47.33
2018-11-22T19:18:40.569Z,54.33
2018-11-22T19:21:08.842Z,72.77
2018-11-22T19:23:37.103Z,84.10
2018-11-22T19:26:05.750Z,65.37
2018-11-22T19:28:34.022Z,53.03
2018-11-22T19:31:02.297Z,49.20
2018-11-22T19:33:30.557Z,46.10
2018-11-22T19:35:58.847Z,43.30
2018-11-22T19:38:27.130Z,82.03
2018-11-22T19:40:55.389Z,68.67
2018-11-22T19:43:23.674Z,61.37
2018-11-22T19:45:52.044Z,58.97
2018-11-22T19:48:20.324Z,53.13
2018-11-22T19:50:48.585Z,73.43
2018-11-22T19:53:17.273Z,45.33
2018-11-22T19:55:45.653Z,44.63
2018-11-22T19:58:15.089Z,46.77
2018-11-22T20:00:43.373Z,86.37
2018-11-22T20:03:11.655Z,71.37
2018-11-22T20:05:40.921Z,114.53
2018-11-22T20:08:10.826Z,120.80
2018-11-22T20:10:40.641Z,117.70
2018-11-22T20:13:08.910Z,168.97
2018-11-22T20:15:37.169Z,152.97
2018-11-22T20:18:12.489Z,47.13
2018-11-22T20:20:40.768Z,121.27
2018-11-22T20:23:09.061Z,129.80
2018-11-22T20:25:37.331Z,121.33
2018-11-22T20:28:05.710Z,110.33
2018-11-22T20:30:35.568Z,161.57
2018-11-22T20:33:03.834Z,122.70
2018-11-22T20:35:32.391Z,83.13
2018-11-22T20:38:00.666Z,162.10
2018-11-22T20:40:29.390Z,118.13
2018-11-22T20:42:58.097Z,114.20
2018-11-22T20:45:27.078Z,87.60
2018-11-22T20:47:57.789Z,150.87
2018-11-22T20:50:26.894Z,104.50
2018-11-22T20:52:55.181Z,102.67
2018-11-22T20:55:26.666Z,97.47
2018-11-22T20:57:56.275Z,82.17
2018-11-22T21:00:25.953Z,46.03
2018-11-22T21:02:54.236Z,58.70
2018-11-22T21:05:23.200Z,55.40
2018-11-22T21:07:51.684Z,82.40
2018-11-22T21:10:22.210Z,91.27
2018-11-22T21:12:50.486Z,84.50
2018-11-22T21:15:20.829Z,78.80
2018-11-22T21:17:50.427Z,110.10
2018-11-22T21:20:20.237Z,80.50
2018-11-22T21:22:48.527Z,79.00
2018-11-22T21:25:18.137Z,170.70
2018-11-22T21:27:46.440Z,76.90
2018-11-22T21:30:19.485Z,91.17
2018-11-22T21:32:48.573Z,130.87
2018-11-22T21:35:17.388Z,112.27
2018-11-22T21:37:46.090Z,27.20
2018-11-22T21:40:15.157Z,31.33
2018-11-22T21:42:43.425Z,123.13
2018-11-22T21:45:14.032Z,106.10
2018-11-22T21:47:42.555Z,28.73
2018-11-22T21:50:12.288Z,69.53
2018-11-22T21:52:40.546Z,83.73
2018-11-22T21:55:11.078Z,50.17
2018-11-22T21:57:40.249Z,23.70
2018-11-22T22:00:12.742Z,29.63
2018-11-22T22:02:41.030Z,81.17
2018-11-22T22:05:09.793Z,69.33
2018-11-22T22:07:38.382Z,95.10
2018-11-22T22:10:06.683Z,105.00
2018-11-22T22:12:34.941Z,55.50
2018-11-22T22:15:03.270Z,68.20
2018-11-22T22:17:31.543Z,65.17
2018-11-22T22:19:59.793Z,89.90
2018-11-22T22:22:28.066Z,117.40
2018-11-22T22:24:56.324Z,92.10
2018-11-22T22:27:24.609Z,155.67
2018-11-22T22:29:52.881Z,91.60
2018-11-22T22:32:21.159Z,87.60
2018-11-22T22:34:49.434Z,88.43
2018-11-22T22:37:17.725Z,85.93
2018-11-22T22:39:46.062Z,134.97
2018-11-22T22:42:14.332Z,117.20
2018-11-22T22:44:42.602Z,180.33
2018-11-22T22:47:10.881Z,30.43
2018-11-22T22:49:39.138Z,60.77
2018-11-22T22:52:07.396Z,82.53
2018-11-22T22:54:35.676Z,32.07
2018-11-22T22:57:03.960Z,120.20
2018-11-22T22:59:32.246Z,126.63
2018-11-22T23:02:00.506Z,64.43
2018-11-22T23:04:28.820Z,51.37
2018-11-22T23:06:57.032Z,25.33
2018-11-22T23:09:25.298Z,25.67
2018-11-22T23:11:53.557Z,27.60
2018-11-22T23:14:21.832Z,18.37
2018-11-22T23:16:50.105Z,46.90
2018-11-22T23:19:18.370Z,28.07
2018-11-22T23:21:46.622Z,44.23
2018-11-22T23:24:14.886Z,67.20
2018-11-22T23:26:43.161Z,114.60
2018-11-22T23:29:11.459Z,92.33
2018-11-22T23:31:39.710Z,100.37
2018-11-22T23:34:08.069Z,84.23
2018-11-22T23:36:36.346Z,101.03
2018-11-22T23:39:07.120Z,76.13
2018-11-22T23:41:35.388Z,117.57
2018-11-22T23:44:03.711Z,111.20
2018-11-22T23:46:31.974Z,61.07
2018-11-22T23:49:00.233Z,74.27
2018-11-22T23:51:28.497Z,25.83
2018-11-22T23:53:56.768Z,84.07
2018-11-22T23:56:25.031Z,86.57
2018-11-22T23:59:00.023Z,114.23
